< Typhoon 200918 2009 Season Typhoon 200920 >
Typhoon 200919 (NEPARTAK)
General InformationTrack Information on Google MapsDetailed Wind InformationAccess Analytics MapList of All Images || Disaster Info.WeblogTrackbackTyphoon FrontTwiphoonTyphoon ImaginationResourceGoogle EarthGE AnimationAtom FeedGeoJSON
Detalied Best Track (Time Zone = UTC)
Year Month Day Hour Lat. Long. Pressure (hPa) Wind (kt) Class Image Chart
2009 10 8 00 15.2 143.8 1004 0 2 Image Chart
2009 10 8 06 16.0 143.6 1004 0 2 Image Chart
2009 10 8 12 16.8 143.4 1004 0 2 Image Chart
2009 10 8 18 17.8 143.2 1002 0 2 Image Chart
2009 10 9 00 18.5 143.1 1002 0 2 Image Chart
2009 10 9 06 19.4 142.7 1000 35 3 Image Chart
2009 10 9 12 19.8 142.5 998 35 3 Image Chart
2009 10 9 18 20.3 142.3 998 35 3 Image Chart
2009 10 10 00 20.7 142.2 998 35 3 Image Chart
2009 10 10 06 21.3 141.9 998 35 3 Image Chart
2009 10 10 12 21.8 141.8 998 35 3 Image Chart
2009 10 10 18 22.1 142.0 998 35 3 Image Chart
2009 10 11 00 22.3 142.3 996 40 3 Image Chart
2009 10 11 06 22.7 142.7 996 40 3 Image Chart
2009 10 11 12 22.9 143.3 996 40 3 Image Chart
2009 10 11 18 23.2 143.8 994 45 3 Image Chart
2009 10 12 00 23.5 144.3 992 45 3 Image Chart
2009 10 12 06 24.3 145.1 992 45 3 Image Chart
2009 10 12 12 25.5 146.2 992 45 3 Image Chart
2009 10 12 18 26.9 147.8 992 45 3 Image Chart
2009 10 13 00 28.6 150.1 992 45 3 Image Chart
2009 10 13 06 30.5 152.8 992 45 3 Image Chart
2009 10 13 12 31.4 155.1 994 45 3 Image Chart
2009 10 13 18 32.6 157.6 996 40 3 Image Chart
2009 10 14 00 34.0 160.0 998 0 6 Image Chart
2009 10 14 06 35.4 163.1 1000 0 6 Image Chart
2009 10 14 12 36.4 166.1 1000 0 6 Image Chart
2009 10 14 18 37.5 169.2 1000 0 6 Image Chart
2009 10 15 00 38.5 172.2 1000 0 6 Image Chart
2009 10 15 06 39.2 175.2 998 0 6 Image Chart
2009 10 15 12 40.0 178.1 998 0 6 Image Chart
2009 10 15 18 41.1 180.7 998 0 6 Image Chart
Japan Meteorological Agency Best Track Data | Correction Date : 2009-12-04
< Typhoon 200918 2009 Season Typhoon 200920 >

Help